Time;durP1;ratioP1;P1;durP2;ratioP2;P2;SDS_P1;SDS_P2;PMS_P1;PMS_P2;Temp;Humidity;BMP_temperature;BMP_pressure;BME280_temperature;BME280_humidity;BME280_pressure;Samples;Min_cycle;Max_cycle;Signal;HPM_P1;HPM_P2
2023/06/21 11:42:52;;;;;;;12.73;10.95;;;;;;;;;;6269900;22;20066;-96
2023/06/21 16:59:47;;;;;;;17.30;9.87;;;;;;;;;;6284974;22;20015;-93
2023/06/21 17:02:12;;;;;;;11.60;8.98;;;;;;;;;;6322152;22;20034;-95
2023/06/21 17:04:42;;;;;;;12.98;9.18;;;;;;;;;;6325899;22;19995;-90
2023/06/21 17:07:07;;;;;;;18.13;8.93;;;;;;;;;;6326571;22;20035;-96
2023/06/21 17:09:33;;;;;;;11.75;9.60;;;;;;;;;;6316247;22;20010;-96
2023/06/21 17:11:59;;;;;;;13.38;8.98;;;;;;;;;;6314013;22;20008;-91
2023/06/21 17:14:25;;;;;;;11.68;9.30;;;;;;;;;;6309215;22;20310;-89
2023/06/21 17:16:50;;;;;;;12.27;8.82;;;;;;;;;;6307013;22;20064;-91
2023/06/21 17:19:16;;;;;;;13.65;9.07;;;;;;;;;;6309495;22;20011;-92
2023/06/21 17:21:42;;;;;;;11.63;8.32;;;;;;;;;;6311265;22;20000;-92
2023/06/21 17:24:07;;;;;;;11.05;9.15;;;;;;;;;;6311725;22;20010;-91
2023/06/21 17:26:32;;;;;;;14.50;10.23;;;;;;;;;;6310788;22;19999;-89
2023/06/21 17:28:58;;;;;;;14.77;10.35;;;;;;;;;;6309738;22;20007;-90
2023/06/21 17:31:24;;;;;;;14.50;9.80;;;;;;;;;;6310621;22;20041;-91
2023/06/21 17:33:51;;;;;;;13.45;9.63;;;;;;;;;;6313311;22;19995;-92
2023/06/21 17:36:16;;;;;;;10.40;8.80;;;;;;;;;;6309566;22;20003;-89
2023/06/21 17:38:41;;;;;;;12.18;8.48;;;;;;;;;;6310724;22;19999;-91
2023/06/21 17:41:07;;;;;;;10.55;8.27;;;;;;;;;;6309562;22;20013;-92
2023/06/21 17:43:32;;;;;;;14.68;8.43;;;;;;;;;;6310488;22;19999;-88
2023/06/21 17:45:58;;;;;;;12.27;8.60;;;;;;;;;;6311022;22;20011;-87
2023/06/21 17:48:23;;;;;;;15.20;9.60;;;;;;;;;;6310008;22;20003;-88
2023/06/21 17:50:49;;;;;;;15.77;9.15;;;;;;;;;;6310339;22;20003;-88
2023/06/21 17:53:14;;;;;;;14.73;8.68;;;;;;;;;;6311025;22;19995;-91
2023/06/21 17:55:43;;;;;;;13.63;8.70;;;;;;;;;;6308196;22;20393;-89
2023/06/21 17:58:09;;;;;;;13.65;9.02;;;;;;;;;;6310314;22;20052;-86
2023/06/21 18:00:35;;;;;;;10.15;9.07;;;;;;;;;;6309837;22;20074;-87
2023/06/21 18:03:00;;;;;;;11.68;8.45;;;;;;;;;;6308380;22;20043;-88
2023/06/21 18:05:26;;;;;;;10.88;8.93;;;;;;;;;;6310692;22;20007;-87
2023/06/21 18:07:52;;;;;;;13.07;8.95;;;;;;;;;;6312463;22;20003;-84
2023/06/21 18:10:18;;;;;;;16.85;8.80;;;;;;;;;;6310156;22;20004;-84
2023/06/21 18:12:43;;;;;;;11.73;9.40;;;;;;;;;;6309711;22;20049;-84
2023/06/21 18:15:09;;;;;;;12.13;10.27;;;;;;;;;;6309581;22;20007;-85
2023/06/21 18:17:37;;;;;;;13.48;9.70;;;;;;;;;;6309484;22;20403;-87
2023/06/21 18:20:06;;;;;;;13.27;10.65;;;;;;;;;;6309713;22;20418;-83
2023/06/21 18:22:33;;;;;;;13.57;8.60;;;;;;;;;;6310230;22;20487;-88
2023/06/21 18:24:59;;;;;;;21.05;15.63;;;;;;;;;;6309449;22;19999;-87
2023/06/21 18:27:25;;;;;;;16.55;13.10;;;;;;;;;;6309413;22;20070;-87
2023/06/21 18:29:50;;;;;;;13.35;9.65;;;;;;;;;;6310348;22;20004;-90
2023/06/21 18:32:16;;;;;;;11.52;8.60;;;;;;;;;;6309307;22;20391;-85
2023/06/21 18:34:41;;;;;;;13.52;9.60;;;;;;;;;;6310389;22;20410;-91
2023/06/21 18:37:07;;;;;;;14.77;10.43;;;;;;;;;;6307691;22;20003;-86
2023/06/21 18:39:32;;;;;;;12.63;10.75;;;;;;;;;;6309517;22;20383;-87
2023/06/21 18:41:58;;;;;;;13.88;9.82;;;;;;;;;;6307792;22;20438;-84
2023/06/21 18:44:23;;;;;;;13.10;8.85;;;;;;;;;;6309637;22;20087;-86
2023/06/21 18:46:49;;;;;;;24.23;9.57;;;;;;;;;;6309373;22;20000;-86
2023/06/21 18:49:14;;;;;;;16.45;8.85;;;;;;;;;;6309305;22;20087;-88
2023/06/21 18:51:39;;;;;;;13.65;9.02;;;;;;;;;;6309993;22;19999;-87
2023/06/21 18:54:05;;;;;;;10.13;9.05;;;;;;;;;;6309779;22;20004;-86
2023/06/21 18:56:31;;;;;;;15.20;10.25;;;;;;;;;;6309725;22;20027;-88
2023/06/21 18:58:56;;;;;;;13.73;10.10;;;;;;;;;;6310408;22;20006;-87
2023/06/21 19:01:24;;;;;;;13.13;9.55;;;;;;;;;;6309134;22;20018;-86
2023/06/21 21:04:44;;;;;;;14.40;8.27;;;;;;;;;;6256889;22;20038;-88
2023/06/21 21:07:10;;;;;;;13.55;8.68;;;;;;;;;;6308060;22;20007;-87
2023/06/21 21:09:35;;;;;;;12.05;8.48;;;;;;;;;;6308045;22;20005;-87
2023/06/21 21:12:01;;;;;;;12.55;7.70;;;;;;;;;;6308043;22;20006;-87
2023/06/21 21:14:26;;;;;;;10.60;7.93;;;;;;;;;;6308115;22;20054;-86
2023/06/21 21:16:53;;;;;;;14.07;8.32;;;;;;;;;;6308248;22;20003;-86
2023/06/21 21:19:19;;;;;;;10.32;8.02;;;;;;;;;;6308055;22;20031;-86
2023/06/21 21:21:44;;;;;;;10.60;8.05;;;;;;;;;;6307668;22;20010;-86
2023/06/21 21:24:10;;;;;;;12.63;8.15;;;;;;;;;;6308068;22;20406;-86
2023/06/21 21:26:35;;;;;;;12.75;8.05;;;;;;;;;;6308191;22;20010;-86
2023/06/21 21:29:00;;;;;;;10.48;8.13;;;;;;;;;;6308268;22;20425;-86
2023/06/21 21:31:26;;;;;;;10.77;8.05;;;;;;;;;;6307741;22;20000;-87
2023/06/21 21:33:51;;;;;;;13.35;8.35;;;;;;;;;;6306276;22;20098;-87
2023/06/21 21:36:17;;;;;;;13.25;8.70;;;;;;;;;;6307791;22;19999;-87
2023/06/21 21:38:43;;;;;;;12.23;8.73;;;;;;;;;;6306145;22;20086;-87
2023/06/21 21:41:08;;;;;;;10.90;7.35;;;;;;;;;;6307591;22;20000;-87
2023/06/21 21:43:34;;;;;;;12.90;8.60;;;;;;;;;;6306397;22;20453;-88
2023/06/21 21:45:59;;;;;;;12.05;8.40;;;;;;;;;;6307870;22;20007;-84
2023/06/21 21:48:25;;;;;;;13.88;9.55;;;;;;;;;;6307832;22;19999;-84
2023/06/21 21:50:50;;;;;;;10.95;8.30;;;;;;;;;;6308141;22;20003;-86
2023/06/21 21:53:16;;;;;;;12.85;9.05;;;;;;;;;;6307755;22;20414;-85
